sensor_id;sensor_type;location;lat;lon;timestamp;pressure;altitude;pressure_sealevel;temperature;humidity
63405;BME280;49541;57.840;12.306;2023-05-23T00:02:38;100706.22;;;15.92;61.13
63405;BME280;49541;57.840;12.306;2023-05-23T00:07:38;100705.56;;;16.15;59.55
63405;BME280;49541;57.840;12.306;2023-05-23T00:12:38;100704.22;;;16.19;58.65
63405;BME280;49541;57.840;12.306;2023-05-23T00:17:41;100695.47;;;16.09;58.57
63405;BME280;49541;57.840;12.306;2023-05-23T00:22:41;100693.97;;;16.14;57.22
63405;BME280;49541;57.840;12.306;2023-05-23T00:27:41;100688.25;;;16.01;57.18
63405;BME280;49541;57.840;12.306;2023-05-23T00:32:42;100686.59;;;16.25;55.67
63405;BME280;49541;57.840;12.306;2023-05-23T00:37:42;100684.91;;;15.99;55.30
63405;BME280;49541;57.840;12.306;2023-05-23T00:42:43;100684.75;;;16.33;52.93
63405;BME280;49541;57.840;12.306;2023-05-23T00:47:43;100673.50;;;16.38;51.70
63405;BME280;49541;57.840;12.306;2023-05-23T00:52:45;100672.63;;;16.54;50.83
63405;BME280;49541;57.840;12.306;2023-05-23T00:57:46;100661.56;;;16.57;50.28
63405;BME280;49541;57.840;12.306;2023-05-23T01:02:47;100660.47;;;16.99;48.71
63405;BME280;49541;57.840;12.306;2023-05-23T01:07:50;100660.63;;;17.06;48.03
63405;BME280;49541;57.840;12.306;2023-05-23T01:28:00;100637.94;;;17.08;47.95
63405;BME280;49541;57.840;12.306;2023-05-23T01:33:02;100635.59;;;16.97;47.36
63405;BME280;49541;57.840;12.306;2023-05-23T01:38:03;100642.75;;;16.65;48.44
63405;BME280;49541;57.840;12.306;2023-05-23T01:43:03;100647.44;;;16.71;48.76
63405;BME280;49541;57.840;12.306;2023-05-23T01:48:04;100631.94;;;16.73;49.15
63405;BME280;49541;57.840;12.306;2023-05-23T01:53:05;100627.25;;;16.84;48.92
63405;BME280;49541;57.840;12.306;2023-05-23T01:58:06;100629.69;;;16.37;49.80
63405;BME280;49541;57.840;12.306;2023-05-23T02:03:06;100631.53;;;16.04;50.27
63405;BME280;49541;57.840;12.306;2023-05-23T02:08:06;100625.66;;;16.09;50.89
63405;BME280;49541;57.840;12.306;2023-05-23T02:13:06;100620.94;;;15.78;52.53
63405;BME280;49541;57.840;12.306;2023-05-23T02:18:06;100605.13;;;15.59;53.96
63405;BME280;49541;57.840;12.306;2023-05-23T02:23:07;100605.97;;;15.51;54.39
63405;BME280;49541;57.840;12.306;2023-05-23T02:28:07;100595.13;;;15.93;52.02
63405;BME280;49541;57.840;12.306;2023-05-23T02:33:07;100594.06;;;15.62;53.02
63405;BME280;49541;57.840;12.306;2023-05-23T02:38:07;100589.25;;;15.73;53.11
63405;BME280;49541;57.840;12.306;2023-05-23T02:43:08;100580.88;;;15.09;55.04
63405;BME280;49541;57.840;12.306;2023-05-23T02:48:08;100565.91;;;14.99;56.85
63405;BME280;49541;57.840;12.306;2023-05-23T02:53:08;100566.75;;;14.99;57.73
63405;BME280;49541;57.840;12.306;2023-05-23T02:58:08;100565.94;;;15.07;57.44
63405;BME280;49541;57.840;12.306;2023-05-23T03:03:09;100557.09;;;15.23;57.17
63405;BME280;49541;57.840;12.306;2023-05-23T03:08:10;100548.09;;;15.32;56.98
63405;BME280;49541;57.840;12.306;2023-05-23T03:13:11;100542.38;;;15.35;56.75
63405;BME280;49541;57.840;12.306;2023-05-23T03:18:11;100534.69;;;15.40;56.23
63405;BME280;49541;57.840;12.306;2023-05-23T03:23:11;100536.69;;;15.46;56.32
63405;BME280;49541;57.840;12.306;2023-05-23T03:28:11;100513.88;;;15.42;55.96
63405;BME280;49541;57.840;12.306;2023-05-23T03:33:12;100518.28;;;15.51;56.51
63405;BME280;49541;57.840;12.306;2023-05-23T03:38:12;100509.53;;;15.41;56.99
63405;BME280;49541;57.840;12.306;2023-05-23T03:43:12;100507.84;;;15.56;55.91
63405;BME280;49541;57.840;12.306;2023-05-23T03:48:12;100504.50;;;15.71;55.92
63405;BME280;49541;57.840;12.306;2023-05-23T03:53:13;100502.19;;;15.60;55.80
63405;BME280;49541;57.840;12.306;2023-05-23T03:58:13;100494.13;;;15.51;55.63
63405;BME280;49541;57.840;12.306;2023-05-23T04:03:13;100499.84;;;15.81;54.80
63405;BME280;49541;57.840;12.306;2023-05-23T04:08:14;100497.03;;;16.38;53.54
63405;BME280;49541;57.840;12.306;2023-05-23T04:13:14;100486.47;;;16.37;52.52
63405;BME280;49541;57.840;12.306;2023-05-23T04:18:14;100475.34;;;15.92;54.24
63405;BME280;49541;57.840;12.306;2023-05-23T04:23:16;100483.31;;;16.17;53.40
63405;BME280;49541;57.840;12.306;2023-05-23T04:28:16;100480.66;;;16.09;53.35
63405;BME280;49541;57.840;12.306;2023-05-23T04:33:16;100466.97;;;15.79;54.69
63405;BME280;49541;57.840;12.306;2023-05-23T04:38:17;100466.63;;;15.74;54.85
63405;BME280;49541;57.840;12.306;2023-05-23T04:43:17;100457.19;;;16.03;53.47
63405;BME280;49541;57.840;12.306;2023-05-23T04:48:18;100455.63;;;16.16;53.44
63405;BME280;49541;57.840;12.306;2023-05-23T04:53:21;100447.56;;;16.25;53.02
63405;BME280;49541;57.840;12.306;2023-05-23T04:58:21;100435.59;;;16.67;52.61
63405;BME280;49541;57.840;12.306;2023-05-23T05:03:21;100434.06;;;16.72;52.27
63405;BME280;49541;57.840;12.306;2023-05-23T05:08:24;100425.41;;;17.16;51.42
63405;BME280;49541;57.840;12.306;2023-05-23T05:13:25;100431.63;;;17.17;51.64
63405;BME280;49541;57.840;12.306;2023-05-23T05:18:25;100434.75;;;17.20;52.58
63405;BME280;49541;57.840;12.306;2023-05-23T05:23:26;100431.66;;;17.32;54.03
63405;BME280;49541;57.840;12.306;2023-05-23T05:28:29;100424.97;;;17.28;53.60
63405;BME280;49541;57.840;12.306;2023-05-23T05:33:29;100414.06;;;17.44;51.23
63405;BME280;49541;57.840;12.306;2023-05-23T05:38:34;100425.47;;;17.46;50.74
63405;BME280;49541;57.840;12.306;2023-05-23T05:43:35;100421.34;;;17.58;50.95
63405;BME280;49541;57.840;12.306;2023-05-23T05:48:35;100430.88;;;17.99;47.28
63405;BME280;49541;57.840;12.306;2023-05-23T05:53:35;100425.84;;;18.11;46.51
63405;BME280;49541;57.840;12.306;2023-05-23T05:58:35;100422.63;;;18.00;46.25
63405;BME280;49541;57.840;12.306;2023-05-23T06:03:36;100417.84;;;18.17;45.54
63405;BME280;49541;57.840;12.306;2023-05-23T06:08:36;100418.75;;;17.80;45.96
63405;BME280;49541;57.840;12.306;2023-05-23T06:13:36;100427.00;;;17.78;47.25
63405;BME280;49541;57.840;12.306;2023-05-23T06:18:37;100428.59;;;17.73;47.83
63405;BME280;49541;57.840;12.306;2023-05-23T06:23:37;100423.44;;;17.86;45.98
63405;BME280;49541;57.840;12.306;2023-05-23T06:28:37;100436.63;;;18.11;45.92
63405;BME280;49541;57.840;12.306;2023-05-23T06:33:38;100425.09;;;18.17;45.75
63405;BME280;49541;57.840;12.306;2023-05-23T06:38:38;100415.00;;;18.19;46.06
63405;BME280;49541;57.840;12.306;2023-05-23T06:43:39;100411.09;;;18.07;46.60
63405;BME280;49541;57.840;12.306;2023-05-23T06:48:39;100415.22;;;18.54;47.54
63405;BME280;49541;57.840;12.306;2023-05-23T06:53:39;100396.31;;;18.17;47.27
63405;BME280;49541;57.840;12.306;2023-05-23T06:58:39;100405.25;;;18.18;47.79
63405;BME280;49541;57.840;12.306;2023-05-23T07:03:40;100405.00;;;18.49;47.10
63405;BME280;49541;57.840;12.306;2023-05-23T07:08:42;100392.28;;;18.28;48.24
63405;BME280;49541;57.840;12.306;2023-05-23T07:13:42;100401.69;;;18.32;49.02
63405;BME280;49541;57.840;12.306;2023-05-23T07:18:42;100385.00;;;18.22;50.03
63405;BME280;49541;57.840;12.306;2023-05-23T07:23:42;100369.03;;;18.06;49.68
63405;BME280;49541;57.840;12.306;2023-05-23T07:28:43;100409.72;;;18.62;47.18
63405;BME280;49541;57.840;12.306;2023-05-23T07:33:43;100386.56;;;18.31;47.39
63405;BME280;49541;57.840;12.306;2023-05-23T07:38:43;100393.16;;;18.29;47.63
63405;BME280;49541;57.840;12.306;2023-05-23T07:43:43;100398.28;;;18.60;45.97
63405;BME280;49541;57.840;12.306;2023-05-23T07:48:44;100443.81;;;18.85;42.94
63405;BME280;49541;57.840;12.306;2023-05-23T07:53:44;100417.19;;;18.30;44.11
63405;BME280;49541;57.840;12.306;2023-05-23T07:58:44;100414.72;;;17.84;46.23
63405;BME280;49541;57.840;12.306;2023-05-23T08:03:44;100399.38;;;18.14;46.62
63405;BME280;49541;57.840;12.306;2023-05-23T08:08:44;100405.16;;;17.96;46.81
63405;BME280;49541;57.840;12.306;2023-05-23T08:13:45;100408.56;;;18.71;47.23
63405;BME280;49541;57.840;12.306;2023-05-23T08:18:45;100408.88;;;18.98;48.10
63405;BME280;49541;57.840;12.306;2023-05-23T08:23:45;100399.56;;;19.22;49.73
63405;BME280;49541;57.840;12.306;2023-05-23T08:28:46;100414.63;;;19.38;50.77
63405;BME280;49541;57.840;12.306;2023-05-23T08:33:46;100395.91;;;19.30;49.94
63405;BME280;49541;57.840;12.306;2023-05-23T08:38:46;100421.31;;;19.42;51.58
63405;BME280;49541;57.840;12.306;2023-05-23T08:43:47;100406.28;;;19.33;50.48
63405;BME280;49541;57.840;12.306;2023-05-23T08:48:50;100406.19;;;19.19;48.59
63405;BME280;49541;57.840;12.306;2023-05-23T08:53:51;100405.75;;;19.44;45.94
63405;BME280;49541;57.840;12.306;2023-05-23T08:58:52;100390.16;;;19.68;44.94
63405;BME280;49541;57.840;12.306;2023-05-23T09:03:53;100393.16;;;19.51;47.26
63405;BME280;49541;57.840;12.306;2023-05-23T09:08:54;100400.31;;;19.65;45.11
63405;BME280;49541;57.840;12.306;2023-05-23T09:13:54;100398.56;;;19.51;45.98
63405;BME280;49541;57.840;12.306;2023-05-23T09:18:55;100389.59;;;19.72;47.88
63405;BME280;49541;57.840;12.306;2023-05-23T09:23:55;100382.34;;;19.73;44.91
63405;BME280;49541;57.840;12.306;2023-05-23T09:28:56;100375.06;;;19.45;45.78
63405;BME280;49541;57.840;12.306;2023-05-23T09:33:56;100378.16;;;19.49;45.92
63405;BME280;49541;57.840;12.306;2023-05-23T09:38:57;100397.75;;;19.79;45.72
63405;BME280;49541;57.840;12.306;2023-05-23T09:44:05;100397.56;;;19.87;45.70
63405;BME280;49541;57.840;12.306;2023-05-23T09:49:13;100385.94;;;20.35;44.75
63405;BME280;49541;57.840;12.306;2023-05-23T09:54:14;100390.69;;;20.61;44.30
63405;BME280;49541;57.840;12.306;2023-05-23T09:59:14;100378.22;;;20.18;43.98
63405;BME280;49541;57.840;12.306;2023-05-23T10:04:15;100384.94;;;20.36;44.41
63405;BME280;49541;57.840;12.306;2023-05-23T10:09:20;100383.19;;;20.15;43.23
63405;BME280;49541;57.840;12.306;2023-05-23T10:14:22;100382.16;;;20.77;41.93
63405;BME280;49541;57.840;12.306;2023-05-23T10:19:23;100381.41;;;21.10;41.07
63405;BME280;49541;57.840;12.306;2023-05-23T10:24:27;100377.19;;;20.88;40.39
63405;BME280;49541;57.840;12.306;2023-05-23T10:29:28;100375.56;;;21.06;40.10
63405;BME280;49541;57.840;12.306;2023-05-23T10:34:33;100378.06;;;21.15;40.24
63405;BME280;49541;57.840;12.306;2023-05-23T10:44:46;100392.63;;;21.34;37.39
63405;BME280;49541;57.840;12.306;2023-05-23T10:49:47;100405.78;;;20.49;38.61
63405;BME280;49541;57.840;12.306;2023-05-23T10:54:53;100387.84;;;19.64;39.27
63405;BME280;49541;57.840;12.306;2023-05-23T10:59:54;100401.44;;;19.21;43.26
63405;BME280;49541;57.840;12.306;2023-05-23T11:10:13;100384.88;;;18.67;44.85
63405;BME280;49541;57.840;12.306;2023-05-23T11:20:17;100373.91;;;17.57;48.64
63405;BME280;49541;57.840;12.306;2023-05-23T11:25:24;100370.16;;;17.44;48.69
63405;BME280;49541;57.840;12.306;2023-05-23T11:30:38;100372.91;;;17.20;49.85
63405;BME280;49541;57.840;12.306;2023-05-23T11:35:39;100390.06;;;17.19;51.38
63405;BME280;49541;57.840;12.306;2023-05-23T11:40:40;100402.91;;;16.86;55.25
63405;BME280;49541;57.840;12.306;2023-05-23T11:45:41;100409.44;;;17.38;54.35
63405;BME280;49541;57.840;12.306;2023-05-23T11:50:46;100414.50;;;17.71;54.59
63405;BME280;49541;57.840;12.306;2023-05-23T11:55:47;100416.84;;;18.18;53.57
63405;BME280;49541;57.840;12.306;2023-05-23T12:00:47;100417.59;;;18.27;53.83
63405;BME280;49541;57.840;12.306;2023-05-23T12:05:48;100423.38;;;18.24;55.67
63405;BME280;49541;57.840;12.306;2023-05-23T12:10:51;100423.16;;;18.26;57.29
63405;BME280;49541;57.840;12.306;2023-05-23T12:15:55;100420.84;;;18.37;58.28
63405;BME280;49541;57.840;12.306;2023-05-23T12:20:59;100426.59;;;18.86;58.19
63405;BME280;49541;57.840;12.306;2023-05-23T12:26:02;100428.66;;;18.83;57.65
63405;BME280;49541;57.840;12.306;2023-05-23T12:36:15;100429.09;;;18.36;59.37
63405;BME280;49541;57.840;12.306;2023-05-23T12:41:20;100420.03;;;18.22;61.36
63405;BME280;49541;57.840;12.306;2023-05-23T12:46:24;100410.25;;;18.21;60.64
63405;BME280;49541;57.840;12.306;2023-05-23T12:51:24;100409.31;;;18.29;60.08
63405;BME280;49541;57.840;12.306;2023-05-23T12:56:24;100407.84;;;18.11;61.86
63405;BME280;49541;57.840;12.306;2023-05-23T13:01:25;100415.13;;;17.58;62.93
63405;BME280;49541;57.840;12.306;2023-05-23T13:06:29;100411.25;;;17.37;59.67
63405;BME280;49541;57.840;12.306;2023-05-23T13:11:30;100422.13;;;17.06;61.25
63405;BME280;49541;57.840;12.306;2023-05-23T13:16:30;100434.75;;;17.20;64.02
63405;BME280;49541;57.840;12.306;2023-05-23T13:21:31;100441.28;;;17.49;63.50
63405;BME280;49541;57.840;12.306;2023-05-23T13:26:31;100449.31;;;17.34;64.87
63405;BME280;49541;57.840;12.306;2023-05-23T13:31:31;100449.91;;;17.45;64.96
63405;BME280;49541;57.840;12.306;2023-05-23T13:36:32;100444.03;;;17.41;63.23
63405;BME280;49541;57.840;12.306;2023-05-23T13:41:33;100446.00;;;17.01;66.57
63405;BME280;49541;57.840;12.306;2023-05-23T13:46:33;100448.63;;;17.09;66.60
63405;BME280;49541;57.840;12.306;2023-05-23T13:51:33;100461.84;;;17.42;65.96
63405;BME280;49541;57.840;12.306;2023-05-23T13:56:35;100446.31;;;17.67;64.63
63405;BME280;49541;57.840;12.306;2023-05-23T14:01:38;100449.09;;;18.12;63.34
63405;BME280;49541;57.840;12.306;2023-05-23T14:06:38;100458.47;;;18.16;63.28
63405;BME280;49541;57.840;12.306;2023-05-23T14:11:38;100460.31;;;17.86;62.78
63405;BME280;49541;57.840;12.306;2023-05-23T14:16:39;100461.53;;;18.13;62.59
63405;BME280;49541;57.840;12.306;2023-05-23T14:21:40;100467.38;;;18.31;63.51
63405;BME280;49541;57.840;12.306;2023-05-23T14:26:40;100461.69;;;18.26;63.06
63405;BME280;49541;57.840;12.306;2023-05-23T14:31:40;100459.88;;;18.12;63.00
63405;BME280;49541;57.840;12.306;2023-05-23T14:36:40;100455.88;;;18.08;63.19
63405;BME280;49541;57.840;12.306;2023-05-23T14:41:41;100460.88;;;18.11;63.80
63405;BME280;49541;57.840;12.306;2023-05-23T14:46:41;100456.97;;;18.28;64.04
63405;BME280;49541;57.840;12.306;2023-05-23T14:51:47;100458.00;;;18.12;64.47
63405;BME280;49541;57.840;12.306;2023-05-23T14:56:47;100455.19;;;17.91;65.17
63405;BME280;49541;57.840;12.306;2023-05-23T15:01:47;100446.94;;;17.92;64.88
63405;BME280;49541;57.840;12.306;2023-05-23T15:06:48;100453.25;;;17.99;64.58
63405;BME280;49541;57.840;12.306;2023-05-23T15:11:49;100452.44;;;17.76;65.44
63405;BME280;49541;57.840;12.306;2023-05-23T15:16:49;100443.84;;;17.43;64.91
63405;BME280;49541;57.840;12.306;2023-05-23T15:21:50;100446.75;;;17.56;65.68
63405;BME280;49541;57.840;12.306;2023-05-23T15:26:50;100456.31;;;17.58;65.79
63405;BME280;49541;57.840;12.306;2023-05-23T15:31:51;100457.97;;;17.83;65.57
63405;BME280;49541;57.840;12.306;2023-05-23T15:36:52;100471.94;;;17.78;65.28
63405;BME280;49541;57.840;12.306;2023-05-23T15:41:52;100473.31;;;17.97;64.92
63405;BME280;49541;57.840;12.306;2023-05-23T15:46:53;100489.84;;;18.09;65.08
63405;BME280;49541;57.840;12.306;2023-05-23T15:51:53;100502.88;;;18.20;64.06
63405;BME280;49541;57.840;12.306;2023-05-23T15:56:54;100501.47;;;18.09;63.05
63405;BME280;49541;57.840;12.306;2023-05-23T16:01:54;100495.63;;;18.06;63.63
63405;BME280;49541;57.840;12.306;2023-05-23T16:06:54;100492.34;;;17.95;63.83
63405;BME280;49541;57.840;12.306;2023-05-23T16:11:55;100496.84;;;17.80;64.64
63405;BME280;49541;57.840;12.306;2023-05-23T16:16:55;100500.06;;;17.98;64.58
63405;BME280;49541;57.840;12.306;2023-05-23T16:21:56;100492.28;;;18.04;65.04
63405;BME280;49541;57.840;12.306;2023-05-23T16:26:57;100489.50;;;18.12;63.82
63405;BME280;49541;57.840;12.306;2023-05-23T16:31:58;100500.47;;;18.25;63.05
63405;BME280;49541;57.840;12.306;2023-05-23T16:36:58;100505.28;;;18.45;63.35
63405;BME280;49541;57.840;12.306;2023-05-23T16:41:59;100504.53;;;18.51;63.19
63405;BME280;49541;57.840;12.306;2023-05-23T16:46:59;100506.59;;;18.34;64.25
63405;BME280;49541;57.840;12.306;2023-05-23T16:51:59;100503.72;;;18.50;64.02
63405;BME280;49541;57.840;12.306;2023-05-23T16:56:59;100515.41;;;18.42;63.87
63405;BME280;49541;57.840;12.306;2023-05-23T17:02:00;100512.97;;;18.77;63.42
63405;BME280;49541;57.840;12.306;2023-05-23T17:07:01;100517.81;;;18.82;62.79
63405;BME280;49541;57.840;12.306;2023-05-23T17:12:01;100516.13;;;18.96;62.10
63405;BME280;49541;57.840;12.306;2023-05-23T17:17:02;100522.84;;;18.85;62.58
63405;BME280;49541;57.840;12.306;2023-05-23T17:22:04;100532.53;;;18.79;63.99
63405;BME280;49541;57.840;12.306;2023-05-23T17:27:04;100534.47;;;18.86;62.52
63405;BME280;49541;57.840;12.306;2023-05-23T17:32:05;100534.47;;;18.86;62.28
63405;BME280;49541;57.840;12.306;2023-05-23T17:37:05;100537.09;;;19.15;62.28
63405;BME280;49541;57.840;12.306;2023-05-23T17:42:05;100543.81;;;19.41;62.41
63405;BME280;49541;57.840;12.306;2023-05-23T17:47:05;100546.34;;;19.06;62.30
63405;BME280;49541;57.840;12.306;2023-05-23T17:52:06;100548.56;;;18.28;64.42
63405;BME280;49541;57.840;12.306;2023-05-23T17:57:08;100546.97;;;18.04;65.65
63405;BME280;49541;57.840;12.306;2023-05-23T18:02:09;100551.28;;;18.28;65.83
63405;BME280;49541;57.840;12.306;2023-05-23T18:07:10;100558.06;;;18.24;65.60
63405;BME280;49541;57.840;12.306;2023-05-23T18:12:11;100568.94;;;18.31;65.61
63405;BME280;49541;57.840;12.306;2023-05-23T18:17:11;100570.91;;;18.22;66.03
63405;BME280;49541;57.840;12.306;2023-05-23T18:22:11;100567.63;;;18.12;66.06
63405;BME280;49541;57.840;12.306;2023-05-23T18:27:13;100575.41;;;18.21;66.08
63405;BME280;49541;57.840;12.306;2023-05-23T18:32:13;100561.38;;;17.96;66.18
63405;BME280;49541;57.840;12.306;2023-05-23T18:37:14;100569.94;;;18.15;66.15
63405;BME280;49541;57.840;12.306;2023-05-23T18:42:14;100566.81;;;17.88;66.79
63405;BME280;49541;57.840;12.306;2023-05-23T18:47:14;100572.84;;;17.90;66.68
63405;BME280;49541;57.840;12.306;2023-05-23T18:52:15;100579.13;;;17.59;67.57
63405;BME280;49541;57.840;12.306;2023-05-23T18:57:15;100580.75;;;17.37;68.03
63405;BME280;49541;57.840;12.306;2023-05-23T19:02:16;100580.31;;;17.34;68.23
63405;BME280;49541;57.840;12.306;2023-05-23T19:07:16;100584.38;;;17.30;67.23
63405;BME280;49541;57.840;12.306;2023-05-23T19:12:17;100584.22;;;17.23;66.86
63405;BME280;49541;57.840;12.306;2023-05-23T19:17:17;100590.72;;;17.06;67.18
63405;BME280;49541;57.840;12.306;2023-05-23T19:22:18;100593.91;;;17.01;67.53
63405;BME280;49541;57.840;12.306;2023-05-23T19:27:18;100599.00;;;16.88;68.37
63405;BME280;49541;57.840;12.306;2023-05-23T19:32:18;100597.06;;;16.49;70.13
63405;BME280;49541;57.840;12.306;2023-05-23T19:37:19;100608.50;;;16.34;70.99
63405;BME280;49541;57.840;12.306;2023-05-23T19:42:19;100606.84;;;16.50;71.32
63405;BME280;49541;57.840;12.306;2023-05-23T19:47:21;100629.78;;;16.69;71.38
63405;BME280;49541;57.840;12.306;2023-05-23T19:52:21;100635.38;;;16.43;72.78
63405;BME280;49541;57.840;12.306;2023-05-23T19:57:21;100643.28;;;16.11;74.50
63405;BME280;49541;57.840;12.306;2023-05-23T20:02:21;100644.13;;;15.95;74.84
63405;BME280;49541;57.840;12.306;2023-05-23T20:07:22;100650.34;;;15.37;78.41
63405;BME280;49541;57.840;12.306;2023-05-23T20:12:22;100659.22;;;15.88;77.19
63405;BME280;49541;57.840;12.306;2023-05-23T20:17:22;100666.72;;;15.76;76.54
63405;BME280;49541;57.840;12.306;2023-05-23T20:22:22;100672.63;;;15.38;78.21
63405;BME280;49541;57.840;12.306;2023-05-23T20:27:22;100659.22;;;14.69;81.29
63405;BME280;49541;57.840;12.306;2023-05-23T20:32:23;100655.03;;;14.66;81.66
63405;BME280;49541;57.840;12.306;2023-05-23T20:37:23;100657.41;;;14.51;82.47
63405;BME280;49541;57.840;12.306;2023-05-23T20:42:23;100654.47;;;14.81;81.96
63405;BME280;49541;57.840;12.306;2023-05-23T20:47:25;100667.59;;;14.92;81.34
63405;BME280;49541;57.840;12.306;2023-05-23T20:52:26;100672.94;;;14.92;79.10
63405;BME280;49541;57.840;12.306;2023-05-23T20:57:27;100676.03;;;15.05;77.98
63405;BME280;49541;57.840;12.306;2023-05-23T21:02:27;100681.13;;;15.25;77.47
63405;BME280;49541;57.840;12.306;2023-05-23T21:07:27;100682.47;;;15.21;76.96
63405;BME280;49541;57.840;12.306;2023-05-23T21:12:27;100691.03;;;15.24;75.26
63405;BME280;49541;57.840;12.306;2023-05-23T21:17:28;100688.72;;;15.29;74.83
63405;BME280;49541;57.840;12.306;2023-05-23T21:22:28;100705.72;;;15.54;74.21
63405;BME280;49541;57.840;12.306;2023-05-23T21:27:28;100712.59;;;15.49;74.50
63405;BME280;49541;57.840;12.306;2023-05-23T21:32:29;100710.63;;;15.25;75.69
63405;BME280;49541;57.840;12.306;2023-05-23T21:37:29;100714.34;;;15.24;75.66
63405;BME280;49541;57.840;12.306;2023-05-23T21:42:29;100715.06;;;15.42;75.69
63405;BME280;49541;57.840;12.306;2023-05-23T21:47:29;100725.88;;;15.59;74.83
63405;BME280;49541;57.840;12.306;2023-05-23T21:52:30;100706.59;;;15.21;75.37
63405;BME280;49541;57.840;12.306;2023-05-23T21:57:30;100707.84;;;15.00;75.78
63405;BME280;49541;57.840;12.306;2023-05-23T22:02:30;100712.78;;;14.87;76.45
63405;BME280;49541;57.840;12.306;2023-05-23T22:07:32;100712.09;;;14.59;77.86
63405;BME280;49541;57.840;12.306;2023-05-23T22:12:32;100731.97;;;14.74;78.50
63405;BME280;49541;57.840;12.306;2023-05-23T22:17:32;100730.19;;;14.83;78.33
63405;BME280;49541;57.840;12.306;2023-05-23T22:22:33;100738.91;;;14.85;78.98
63405;BME280;49541;57.840;12.306;2023-05-23T22:27:33;100740.16;;;14.72;80.25
63405;BME280;49541;57.840;12.306;2023-05-23T22:32:33;100737.59;;;14.89;79.87
63405;BME280;49541;57.840;12.306;2023-05-23T22:37:34;100726.88;;;14.89;79.90
63405;BME280;49541;57.840;12.306;2023-05-23T22:42:34;100733.53;;;15.11;79.22
63405;BME280;49541;57.840;12.306;2023-05-23T22:47:35;100734.81;;;15.33;78.61
63405;BME280;49541;57.840;12.306;2023-05-23T22:52:35;100741.41;;;15.39;78.24
63405;BME280;49541;57.840;12.306;2023-05-23T22:57:35;100740.09;;;15.93;74.74
63405;BME280;49541;57.840;12.306;2023-05-23T23:02:35;100741.63;;;15.19;77.32
63405;BME280;49541;57.840;12.306;2023-05-23T23:07:36;100747.31;;;14.90;79.09
63405;BME280;49541;57.840;12.306;2023-05-23T23:12:37;100748.88;;;14.74;80.00
63405;BME280;49541;57.840;12.306;2023-05-23T23:17:37;100758.25;;;14.97;78.55
63405;BME280;49541;57.840;12.306;2023-05-23T23:22:38;100753.56;;;14.72;79.72
63405;BME280;49541;57.840;12.306;2023-05-23T23:27:38;100750.56;;;14.04;83.20
63405;BME280;49541;57.840;12.306;2023-05-23T23:32:39;100754.28;;;13.75;86.15
63405;BME280;49541;57.840;12.306;2023-05-23T23:37:39;100763.00;;;14.59;81.97
63405;BME280;49541;57.840;12.306;2023-05-23T23:42:39;100755.81;;;14.41;81.42
63405;BME280;49541;57.840;12.306;2023-05-23T23:47:40;100757.25;;;14.18;84.11
63405;BME280;49541;57.840;12.306;2023-05-23T23:52:41;100751.25;;;14.06;84.94
63405;BME280;49541;57.840;12.306;2023-05-23T23:57:41;100761.75;;;14.17;84.94
